Airport View

Enter AWOS ICAO identifier for current METAR.

ex. KFNL

KLHZ 251315Z AUTO 02006KT 3SM RA SCT022 BKN026 OVC049 16/16 A3016 RMK AO2 P0006

25 Sep 2020 13:17

Frequency: 118.325

Phone: 919-497-0810

Other Area AWOS: KHNZ - KRWI - KRDU - KJNX

TAF KRWI 251120Z 2512/2612 VRB05KT P6SM SCT015 OVC080 TEMPO 2512/2515 3SM -SHRA BR OVC015 FM251500 09005KT 4SM -SHRA BR OVC007 FM252200 09005KT 3SM -SHRA OVC004 FM260300 VRB05KT 1 1/2SM -RA BR OVC003